Time;durP1;ratioP1;P1;durP2;ratioP2;P2;SDS_P1;SDS_P2;PMS_P1;PMS_P2;Temp;Humidity;BMP_temperature;BMP_pressure;BME280_temperature;BME280_humidity;BME280_pressure;Samples;Min_cycle;Max_cycle;Signal;HPM_P1;HPM_P2
2023/12/24 00:00:10;;;;;;;10.40;2.13;;;;;;;7.64;100.00;100332.00;4986739;28;20045;-73
2023/12/24 00:02:55;;;;;;;11.38;2.38;;;;;;;7.64;100.00;100316.19;4984839;28;20070;-73
2023/12/24 00:05:41;;;;;;;6.82;2.20;;;;;;;7.65;100.00;100309.13;4985136;28;20046;-73
2023/12/24 00:08:28;;;;;;;6.78;1.80;;;;;;;7.65;100.00;100315.25;4986603;28;20042;-73
2023/12/24 00:11:13;;;;;;;7.82;1.95;;;;;;;7.64;100.00;100313.56;4986403;28;20048;-74
2023/12/24 00:14:03;;;;;;;7.10;1.90;;;;;;;7.65;100.00;100307.34;4996139;28;20046;-72
2023/12/24 00:16:48;;;;;;;8.93;2.03;;;;;;;7.65;100.00;100304.72;4986284;28;20208;-74
2023/12/24 00:19:33;;;;;;;11.32;2.30;;;;;;;7.67;100.00;100304.66;4984803;28;20109;-73
2023/12/24 00:22:19;;;;;;;10.43;2.42;;;;;;;7.68;100.00;100298.47;4984882;28;20050;-74
2023/12/24 00:25:05;;;;;;;7.07;1.90;;;;;;;7.68;100.00;100299.31;4982853;28;20053;-73
2023/12/24 00:27:50;;;;;;;8.07;2.20;;;;;;;7.69;100.00;100290.47;4985333;28;20041;-74
2023/12/24 00:30:38;;;;;;;6.70;1.77;;;;;;;7.68;100.00;100294.03;4982276;28;20046;-74
2023/12/24 00:33:23;;;;;;;5.20;1.95;;;;;;;7.69;100.00;100289.63;4980389;28;20096;-75
2023/12/24 00:36:12;;;;;;;7.55;2.10;;;;;;;7.70;100.00;100280.81;4987677;28;20118;-74
2023/12/24 00:38:57;;;;;;;6.32;2.20;;;;;;;7.72;100.00;100290.34;4983237;28;20054;-74
2023/12/24 00:41:43;;;;;;;10.52;2.22;;;;;;;7.74;100.00;100287.66;4984494;28;20178;-74
2023/12/24 00:44:28;;;;;;;6.85;1.73;;;;;;;7.73;100.00;100292.06;4983679;28;20054;-74
2023/12/24 00:47:13;;;;;;;5.35;1.88;;;;;;;7.73;100.00;100283.28;4981828;28;20102;-73
2023/12/24 00:49:59;;;;;;;10.15;1.83;;;;;;;7.72;100.00;100285.09;4979740;28;20050;-74
2023/12/24 00:52:46;;;;;;;7.60;2.40;;;;;;;7.72;100.00;100278.94;4979520;28;20050;-74
2023/12/24 00:55:31;;;;;;;6.35;1.60;;;;;;;7.72;100.00;100284.22;4981616;28;20070;-74
2023/12/24 00:58:17;;;;;;;10.32;2.45;;;;;;;7.71;100.00;100283.38;4983013;28;20088;-74
2023/12/24 01:01:03;;;;;;;6.15;2.05;;;;;;;7.70;100.00;100273.78;4980403;28;20645;-74
2023/12/24 01:03:49;;;;;;;7.20;2.15;;;;;;;7.72;100.00;100286.84;4982861;28;20061;-73
2023/12/24 01:06:34;;;;;;;8.25;2.20;;;;;;;7.71;100.00;100267.56;4980538;28;20100;-74
2023/12/24 01:09:19;;;;;;;4.68;1.80;;;;;;;7.70;100.00;100265.88;4979367;28;20054;-74
2023/12/24 01:12:05;;;;;;;9.57;2.38;;;;;;;7.70;100.00;100259.72;4979731;28;20470;-74
2023/12/24 01:14:51;;;;;;;8.25;2.10;;;;;;;7.68;100.00;100265.06;4991601;28;20177;-73
2023/12/24 01:17:36;;;;;;;9.52;2.22;;;;;;;7.68;100.00;100267.69;4982221;28;21672;-73
2023/12/24 01:20:22;;;;;;;6.03;1.75;;;;;;;7.68;100.00;100269.47;4980378;28;20046;-73
2023/12/24 01:23:07;;;;;;;13.60;2.28;;;;;;;7.67;100.00;100254.59;4967623;28;20049;-73
2023/12/24 01:25:53;;;;;;;8.13;2.28;;;;;;;7.68;100.00;100256.31;4980538;28;20053;-72
2023/12/24 01:28:40;;;;;;;7.82;2.30;;;;;;;7.67;100.00;100239.63;4981347;28;20039;-73
2023/12/24 01:31:27;;;;;;;7.22;2.13;;;;;;;7.67;100.00;100250.16;4977009;28;20037;-73
2023/12/24 01:34:12;;;;;;;10.18;2.40;;;;;;;7.67;100.00;100241.44;4979498;28;20145;-73
2023/12/24 01:36:57;;;;;;;5.60;1.83;;;;;;;7.68;100.00;100251.03;4982703;28;20157;-73
2023/12/24 01:39:43;;;;;;;9.05;1.67;;;;;;;7.69;100.00;100248.31;4984088;28;20042;-72
2023/12/24 01:42:28;;;;;;;11.50;2.50;;;;;;;7.69;100.00;100243.03;4981581;28;20136;-73
2023/12/24 01:45:14;;;;;;;7.90;2.13;;;;;;;7.70;100.00;100243.91;4984579;28;20295;-73
2023/12/24 01:48:02;;;;;;;12.60;2.58;;;;;;;7.71;100.00;100229.81;4982886;28;20079;-73
2023/12/24 01:50:48;;;;;;;10.27;1.98;;;;;;;7.71;100.00;100227.19;4966976;28;20169;-71
2023/12/24 01:53:33;;;;;;;10.15;1.90;;;;;;;7.70;100.00;100215.81;4980606;28;20220;-73
2023/12/24 01:56:22;;;;;;;7.03;2.25;;;;;;;7.72;100.00;100236.78;4981519;28;20042;-73
2023/12/24 01:59:10;;;;;;;7.68;1.88;;;;;;;7.71;100.00;100241.22;4980104;28;20061;-73
2023/12/24 02:01:56;;;;;;;6.80;1.77;;;;;;;7.72;100.00;100231.53;4981641;28;20049;-72
2023/12/24 02:04:42;;;;;;;7.28;1.65;;;;;;;7.72;100.00;100229.75;4982782;28;20085;-74
2023/12/24 02:07:28;;;;;;;6.60;2.53;;;;;;;7.73;100.00;100228.81;4982801;28;20735;-72
2023/12/24 02:10:13;;;;;;;6.60;1.73;;;;;;;7.75;100.00;100205.88;4979609;28;20452;-72
2023/12/24 02:12:59;;;;;;;5.00;1.55;;;;;;;7.77;100.00;100208.47;4983558;28;20042;-73
2023/12/24 02:15:46;;;;;;;9.85;1.88;;;;;;;7.80;100.00;100207.47;4993651;28;20033;-73
2023/12/24 02:18:32;;;;;;;9.13;1.90;;;;;;;7.79;100.00;100203.97;4983186;28;20050;-72
2023/12/24 02:21:20;;;;;;;11.02;1.85;;;;;;;7.81;100.00;100198.66;4984377;28;20053;-72
2023/12/24 02:24:06;;;;;;;11.13;2.38;;;;;;;7.83;100.00;100217.88;4982795;28;20089;-73
2023/12/24 02:27:09;;;;;;;7.13;1.70;;;;;;;7.85;100.00;100205.50;4992408;28;20049;-73
2023/12/24 02:29:56;;;;;;;;;;;;;;;7.87;100.00;100206.28;4981697;28;20046;-74
2023/12/24 02:32:43;;;;;;;7.60;1.80;;;;;;;7.88;100.00;100194.81;4981872;28;19929;-73
2023/12/24 02:35:32;;;;;;;7.72;2.00;;;;;;;7.87;100.00;100193.97;4980962;28;20719;-74
2023/12/24 02:38:17;;;;;;;8.13;2.42;;;;;;;7.88;100.00;100179.00;4991720;28;20035;-72
2023/12/24 02:41:03;;;;;;;7.30;1.75;;;;;;;7.92;100.00;100185.00;4983691;28;21765;-73
2023/12/24 02:43:49;;;;;;;9.88;2.00;;;;;;;7.93;100.00;100169.09;4984684;28;20057;-74
2023/12/24 02:46:34;;;;;;;7.82;2.15;;;;;;;7.95;100.00;100172.53;4990348;28;20489;-74
2023/12/24 02:49:20;;;;;;;6.60;2.05;;;;;;;7.95;100.00;100163.78;4983838;28;20054;-73
2023/12/24 02:52:05;;;;;;;7.07;1.60;;;;;;;7.97;100.00;100162.78;4985798;28;20056;-72
2023/12/24 02:54:50;;;;;;;4.10;1.42;;;;;;;7.97;100.00;100154.88;4983848;28;20042;-73
2023/12/24 02:57:36;;;;;;;10.38;1.85;;;;;;;7.96;100.00;100150.50;4984728;28;20049;-73
2023/12/24 03:00:21;;;;;;;10.63;1.67;;;;;;;7.95;100.00;100154.06;4983299;28;20046;-73
2023/12/24 03:03:07;;;;;;;6.68;1.70;;;;;;;7.95;100.00;100154.06;4983489;28;20058;-74
2023/12/24 03:05:52;;;;;;;7.32;1.80;;;;;;;7.96;100.00;100149.66;4983321;28;20532;-73
2023/12/24 03:08:38;;;;;;;2.60;1.40;;;;;;;7.97;100.00;100157.50;4984685;28;20053;-72
2023/12/24 03:11:27;;;;;;;5.05;1.67;;;;;;;7.97;100.00;100154.88;4984873;28;20140;-74
2023/12/24 03:14:12;;;;;;;3.70;1.55;;;;;;;7.99;100.00;100155.66;4982981;28;20031;-75
2023/12/24 03:16:58;;;;;;;6.25;1.75;;;;;;;7.99;100.00;100144.25;4983282;28;20046;-73
2023/12/24 03:19:43;;;;;;;3.80;1.60;;;;;;;7.99;100.00;100131.94;4983386;28;20050;-74
2023/12/24 03:22:28;;;;;;;4.82;1.67;;;;;;;8.01;100.00;100121.31;4980163;28;20057;-72
2023/12/24 03:25:14;;;;;;;4.43;1.50;;;;;;;8.03;100.00;100124.72;4983378;28;20042;-72
2023/12/24 03:27:59;;;;;;;6.68;1.80;;;;;;;8.02;100.00;100115.97;4983350;28;20030;-74
2023/12/24 03:30:45;;;;;;;3.30;1.75;;;;;;;8.05;100.00;100117.59;4984244;28;20149;-74
2023/12/24 03:33:30;;;;;;;3.42;1.55;;;;;;;8.04;100.00;100128.22;4982968;28;20109;-74
2023/12/24 03:36:15;;;;;;;4.68;1.50;;;;;;;8.05;100.00;100111.50;4981262;28;20386;-73
2023/12/24 03:39:01;;;;;;;3.70;1.40;;;;;;;8.05;100.00;100109.69;4983721;28;20081;-73
2023/12/24 03:41:46;;;;;;;6.72;1.77;;;;;;;8.06;100.00;100106.13;4984210;28;20046;-73
2023/12/24 03:44:32;;;;;;;5.40;1.77;;;;;;;8.05;100.00;100111.50;4982521;28;20046;-74
2023/12/24 03:47:17;;;;;;;4.28;1.73;;;;;;;8.07;100.00;100099.09;4982800;28;20157;-73
2023/12/24 03:50:03;;;;;;;4.35;1.77;;;;;;;8.08;100.00;100100.78;4982898;28;20072;-73
2023/12/24 03:52:48;;;;;;;8.50;1.98;;;;;;;8.08;100.00;100092.88;4981177;28;20042;-74
2023/12/24 03:55:33;;;;;;;2.35;1.58;;;;;;;8.08;100.00;100080.56;4984498;28;20050;-74
2023/12/24 03:58:19;;;;;;;3.47;1.45;;;;;;;8.11;100.00;100100.63;4988595;28;20137;-74
2023/12/24 04:01:09;;;;;;;7.35;1.77;;;;;;;8.10;100.00;100086.59;4981033;28;20137;-72
2023/12/24 04:03:54;;;;;;;3.63;1.75;;;;;;;8.11;100.00;100071.63;4979750;28;20164;-71
2023/12/24 04:06:40;;;;;;;3.47;1.80;;;;;;;8.11;100.00;100083.03;4982480;28;20593;-73
2023/12/24 04:09:35;;;;;;;4.70;2.10;;;;;;;8.17;100.00;100081.88;4968278;28;20122;-73
2023/12/24 04:12:20;;;;;;;2.00;1.38;;;;;;;8.21;100.00;100072.91;4969835;28;20066;-74
2023/12/24 04:15:07;;;;;;;4.60;1.63;;;;;;;8.23;100.00;100068.41;4981354;28;20041;-74
2023/12/24 04:17:53;;;;;;;4.28;2.00;;;;;;;8.23;100.00;100072.84;4982999;28;20856;-74
2023/12/24 04:20:38;;;;;;;5.20;1.67;;;;;;;8.25;100.00;100071.84;4981763;28;20039;-73
2023/12/24 04:23:24;;;;;;;4.03;2.00;;;;;;;8.27;100.00;100069.13;4983559;28;20161;-74
2023/12/24 04:26:09;;;;;;;5.05;1.95;;;;;;;8.28;100.00;100078.72;4982809;28;20069;-75
2023/12/24 04:28:55;;;;;;;5.53;2.03;;;;;;;8.29;100.00;100081.31;4983022;28;20139;-73
2023/12/24 04:31:40;;;;;;;6.20;2.15;;;;;;;8.32;100.00;100074.19;4984108;28;20050;-72
2023/12/24 04:34:28;;;;;;;8.02;2.15;;;;;;;8.32;100.00;100061.00;4983397;28;20050;-74
2023/12/24 04:37:13;;;;;;;9.38;2.17;;;;;;;8.34;100.00;100067.88;4978359;28;20058;-74
2023/12/24 04:39:59;;;;;;;3.38;1.80;;;;;;;8.37;100.00;100064.25;4981496;28;20060;-73
2023/12/24 04:42:44;;;;;;;7.57;2.33;;;;;;;8.37;100.00;100058.97;4987866;28;20046;-72
2023/12/24 04:45:30;;;;;;;6.13;2.22;;;;;;;8.40;100.00;100058.84;4986399;28;20034;-73
2023/12/24 04:48:15;;;;;;;5.85;1.98;;;;;;;8.41;100.00;100055.28;4988162;28;20045;-74
2023/12/24 04:51:00;;;;;;;4.55;2.00;;;;;;;8.42;100.00;100047.28;4979953;28;20094;-74
2023/12/24 04:53:46;;;;;;;6.35;2.47;;;;;;;8.44;100.00;100039.28;4983325;28;20051;-73
2023/12/24 04:56:32;;;;;;;6.38;2.05;;;;;;;8.47;100.00;100043.56;4984093;28;20042;-73
2023/12/24 04:59:17;;;;;;;9.15;2.17;;;;;;;8.49;100.00;100036.44;4986210;28;20026;-72
2023/12/24 05:02:03;;;;;;;6.63;2.28;;;;;;;8.50;100.00;100041.63;4981109;28;20046;-73
2023/12/24 05:04:49;;;;;;;8.13;2.38;;;;;;;8.50;100.00;100041.63;4985487;28;20058;-75
2023/12/24 05:07:34;;;;;;;7.38;2.20;;;;;;;8.51;100.00;100048.63;4982193;28;20050;-72
2023/12/24 05:10:20;;;;;;;8.63;2.17;;;;;;;8.53;100.00;100046.78;4984512;28;20042;-73
2023/12/24 05:13:06;;;;;;;11.43;2.33;;;;;;;8.53;100.00;100043.28;4985960;28;20046;-74
2023/12/24 05:15:51;;;;;;;7.13;2.08;;;;;;;8.54;100.00;100027.38;4981500;28;20041;-73
2023/12/24 05:18:36;;;;;;;12.00;2.08;;;;;;;8.59;100.00;100034.19;4990000;28;20045;-73
2023/12/24 05:21:22;;;;;;;7.40;2.70;;;;;;;8.61;100.00;100035.00;4995029;28;20042;-74
2023/12/24 05:24:07;;;;;;;12.38;1.73;;;;;;;8.63;100.00;100043.69;4991263;28;20038;-73
2023/12/24 05:26:53;;;;;;;10.02;1.77;;;;;;;8.65;100.00;100044.44;4990558;28;20156;-74
2023/12/24 05:29:40;;;;;;;10.55;1.83;;;;;;;8.67;100.00;100037.34;4986868;28;20042;-74
2023/12/24 05:32:25;;;;;;;8.82;1.75;;;;;;;8.67;100.00;100042.59;4987442;28;20048;-74
2023/12/24 05:35:11;;;;;;;8.32;2.03;;;;;;;8.69;100.00;100046.00;4984460;28;20100;-73
2023/12/24 05:37:56;;;;;;;9.98;2.25;;;;;;;8.72;100.00;100047.66;4987349;28;20181;-74
2023/12/24 05:40:44;;;;;;;8.57;2.00;;;;;;;8.72;100.00;100056.41;4987388;28;20050;-74
2023/12/24 05:43:29;;;;;;;12.00;2.40;;;;;;;8.74;100.00;100048.41;4986523;28;20038;-75
2023/12/24 05:46:15;;;;;;;5.63;1.90;;;;;;;8.77;100.00;100048.28;4986826;28;20038;-74
2023/12/24 05:49:02;;;;;;;13.23;2.30;;;;;;;8.76;100.00;100046.56;4988026;28;20046;-74
2023/12/24 05:51:48;;;;;;;5.63;1.77;;;;;;;8.76;100.00;100036.84;4982714;28;20072;-74
2023/12/24 05:54:33;;;;;;;8.52;1.90;;;;;;;8.78;100.00;100034.16;4984322;28;20108;-75
2023/12/24 05:57:19;;;;;;;11.00;1.63;;;;;;;8.79;100.00;100025.28;4985364;28;20049;-74
2023/12/24 06:00:06;;;;;;;6.82;2.08;;;;;;;8.81;100.00;100031.34;4983791;28;20073;-73
2023/12/24 06:02:51;;;;;;;10.10;1.70;;;;;;;8.81;100.00;100024.28;4984920;28;20054;-75
2023/12/24 06:05:36;;;;;;;7.78;2.25;;;;;;;8.83;100.00;100022.41;4988202;28;20053;-73
2023/12/24 06:08:23;;;;;;;8.25;2.08;;;;;;;8.85;100.00;100021.47;4990277;28;20042;-74
2023/12/24 06:11:15;;;;;;;11.95;1.80;;;;;;;8.86;100.00;100024.03;4981498;28;20034;-74
2023/12/24 06:14:01;;;;;;;7.50;1.70;;;;;;;8.87;100.00;100019.63;4984861;28;20030;-74
2023/12/24 06:16:46;;;;;;;10.23;1.73;;;;;;;8.89;100.00;100002.75;4985679;28;20054;-73
2023/12/24 06:19:32;;;;;;;7.07;2.13;;;;;;;8.90;100.00;100016.81;4987708;28;20034;-73
2023/12/24 06:22:17;;;;;;;5.88;1.52;;;;;;;8.88;100.00;100006.31;4987546;28;20038;-74
2023/12/24 06:25:03;;;;;;;10.23;2.00;;;;;;;8.90;100.00;100016.81;4984223;28;20037;-74
2023/12/24 06:27:48;;;;;;;5.50;1.45;;;;;;;8.90;100.00;99999.22;4987087;28;20100;-73
2023/12/24 06:30:34;;;;;;;6.70;1.77;;;;;;;8.92;100.00;100014.94;4987458;28;20081;-74
2023/12/24 06:33:22;;;;;;;6.18;1.98;;;;;;;8.92;100.00;99999.09;4988434;28;20042;-74
2023/12/24 06:36:07;;;;;;;6.22;1.73;;;;;;;8.92;100.00;100007.03;4987311;28;20053;-74
2023/12/24 06:38:53;;;;;;;8.68;1.67;;;;;;;8.93;100.00;100004.31;4990377;28;20042;-74
2023/12/24 06:41:38;;;;;;;8.02;1.90;;;;;;;8.94;100.00;100000.72;4991796;28;20046;-75
2023/12/24 06:44:23;;;;;;;8.73;1.73;;;;;;;8.97;100.00;100005.00;4990463;28;20042;-75
2023/12/24 06:47:09;;;;;;;5.55;1.60;;;;;;;8.98;100.00;100009.34;4986270;28;20090;-74
2023/12/24 06:49:54;;;;;;;7.20;1.95;;;;;;;9.02;100.00;100007.41;4986868;28;20045;-74
2023/12/24 06:52:43;;;;;;;9.00;1.60;;;;;;;9.03;100.00;100003.81;4988567;28;20516;-74
2023/12/24 06:55:28;;;;;;;10.23;1.77;;;;;;;9.04;100.00;99990.53;4988463;28;20057;-75
2023/12/24 06:58:14;;;;;;;8.32;1.88;;;;;;;9.06;100.00;99983.38;4988356;28;20046;-72
2023/12/24 07:00:59;;;;;;;6.32;1.58;;;;;;;9.09;100.00;99982.38;4988679;28;20560;-73
2023/12/24 07:03:45;;;;;;;13.07;2.03;;;;;;;9.13;100.00;99988.34;4986518;28;20054;-74
2023/12/24 07:06:30;;;;;;;7.05;1.90;;;;;;;9.12;100.00;99998.06;4987270;28;20061;-73
2023/12/24 07:09:18;;;;;;;9.50;1.90;;;;;;;9.15;100.00;99991.78;4984096;28;20050;-75
2023/12/24 07:12:04;;;;;;;9.25;1.83;;;;;;;9.17;100.00;99989.91;4987600;28;20632;-73
2023/12/24 07:14:49;;;;;;;6.07;1.90;;;;;;;9.18;100.00;99995.13;4984642;28;20089;-73
2023/12/24 07:17:35;;;;;;;8.43;1.73;;;;;;;9.22;100.00;100003.72;4984053;28;20065;-73
2023/12/24 07:20:20;;;;;;;5.97;1.63;;;;;;;9.23;100.00;100016.00;4996509;28;20077;-75
2023/12/24 07:23:06;;;;;;;7.38;2.08;;;;;;;9.24;100.00;100013.28;4983719;28;20057;-73
2023/12/24 07:25:51;;;;;;;7.93;1.60;;;;;;;9.26;100.00;100010.53;4980989;28;20080;-73
2023/12/24 07:28:36;;;;;;;8.95;1.83;;;;;;;9.28;100.00;99999.88;4985849;28;20076;-73
2023/12/24 07:31:22;;;;;;;7.30;1.70;;;;;;;9.28;100.00;99984.91;4984841;28;20053;-74
2023/12/24 07:34:09;;;;;;;12.00;2.25;;;;;;;9.29;100.00;99994.53;4985142;28;20050;-74
2023/12/24 07:36:54;;;;;;;8.35;2.15;;;;;;;9.29;100.00;99983.97;4984428;28;20096;-73
2023/12/24 07:39:40;;;;;;;9.02;2.50;;;;;;;9.31;100.00;99986.53;4980979;28;20417;-73
2023/12/24 07:42:25;;;;;;;5.68;2.00;;;;;;;9.31;100.00;99983.91;4982119;28;21941;-73
2023/12/24 07:45:11;;;;;;;8.55;1.88;;;;;;;9.33;100.00;99985.50;4985267;28;20042;-74
2023/12/24 07:47:56;;;;;;;9.68;2.65;;;;;;;9.34;100.00;99994.28;4982802;28;20038;-74
2023/12/24 07:50:42;;;;;;;10.55;2.28;;;;;;;9.36;100.00;99985.34;4994898;28;20868;-74
2023/12/24 07:53:28;;;;;;;7.63;1.50;;;;;;;9.39;100.00;99968.47;4987552;28;20030;-74
2023/12/24 07:56:13;;;;;;;8.90;1.85;;;;;;;9.41;100.00;99963.13;4999858;28;20042;-74
2023/12/24 07:58:59;;;;;;;8.15;1.60;;;;;;;9.43;100.00;99969.16;4999828;28;20127;-74
2023/12/24 08:01:44;;;;;;;8.35;2.03;;;;;;;9.43;100.00;99975.28;5001286;28;20630;-73
2023/12/24 08:04:31;;;;;;;5.43;1.63;;;;;;;9.43;100.00;99975.28;5003262;28;20152;-74
2023/12/24 08:07:16;;;;;;;10.48;1.85;;;;;;;9.48;100.00;99967.97;4997655;28;20061;-74
2023/12/24 08:10:02;;;;;;;9.35;2.47;;;;;;;9.49;100.00;99974.13;4998993;28;20471;-74
2023/12/24 08:12:47;;;;;;;9.68;2.13;;;;;;;9.46;100.00;99971.63;4998752;28;20073;-74
2023/12/24 08:15:33;;;;;;;10.27;1.85;;;;;;;9.45;100.00;99969.91;5002483;28;20049;-74
2023/12/24 08:18:18;;;;;;;10.15;2.33;;;;;;;9.46;100.00;99976.91;5003615;28;20079;-74
2023/12/24 08:21:06;;;;;;;8.23;2.42;;;;;;;9.47;100.00;99968.91;5003422;28;21937;-75
2023/12/24 08:23:52;;;;;;;10.00;2.03;;;;;;;9.50;100.00;99967.88;5000393;28;20041;-75
2023/12/24 08:26:37;;;;;;;15.40;1.98;;;;;;;9.51;100.00;99966.94;5000778;28;20046;-74
2023/12/24 08:29:23;;;;;;;9.73;1.90;;;;;;;9.53;100.00;99943.91;5000214;28;21503;-75
2023/12/24 08:32:08;;;;;;;11.80;1.80;;;;;;;9.55;100.00;99936.78;5000332;28;20110;-74
2023/12/24 08:34:53;;;;;;;8.93;1.50;;;;;;;9.56;100.00;99943.75;5005148;28;20053;-74
2023/12/24 08:37:39;;;;;;;9.18;2.10;;;;;;;9.57;100.00;99939.31;5001172;28;20046;-74
2023/12/24 08:40:27;;;;;;;10.95;1.88;;;;;;;9.59;100.00;99942.75;4998129;28;20050;-75
2023/12/24 08:43:12;;;;;;;7.13;1.85;;;;;;;9.60;100.00;99934.72;4998577;28;20093;-75
2023/12/24 08:46:00;;;;;;;8.30;1.70;;;;;;;9.62;100.00;99954.00;4998674;28;20155;-74
2023/12/24 08:48:45;;;;;;;10.73;1.73;;;;;;;9.65;100.00;99958.25;5000159;28;20095;-75
2023/12/24 08:51:30;;;;;;;11.15;2.42;;;;;;;9.67;100.00;99955.50;5001906;28;20033;-75
2023/12/24 08:54:16;;;;;;;7.13;1.75;;;;;;;9.69;100.00;99946.56;5002802;28;20053;-75
2023/12/24 08:57:06;;;;;;;7.60;1.83;;;;;;;9.72;100.00;99937.63;4999871;28;20069;-74
2023/12/24 08:59:52;;;;;;;3.53;1.15;;;;;;;9.73;100.00;99919.03;5015538;28;20124;-75
2023/12/24 09:02:38;;;;;;;4.68;1.60;;;;;;;9.77;100.00;99917.06;5005060;28;20139;-75
2023/12/24 09:05:24;;;;;;;6.60;1.70;;;;;;;9.80;100.00;99913.41;5000678;28;20620;-74
2023/12/24 09:08:09;;;;;;;12.27;2.08;;;;;;;9.80;100.00;99908.94;5001183;28;20752;-74
2023/12/24 09:10:55;;;;;;;6.65;1.60;;;;;;;9.82;100.00;99922.09;5001730;28;20080;-74
2023/12/24 09:13:42;;;;;;;10.20;1.80;;;;;;;9.84;100.00;99914.91;4999908;28;20516;-74
2023/12/24 09:16:28;;;;;;;6.75;2.00;;;;;;;9.87;100.00;99930.63;4998766;28;20068;-75
2023/12/24 09:19:13;;;;;;;5.13;1.45;;;;;;;9.88;100.00;99922.59;5000575;28;20052;-74
2023/12/24 09:21:59;;;;;;;8.32;1.83;;;;;;;9.90;100.00;99935.72;4999768;28;20088;-75
2023/12/24 09:24:44;;;;;;;5.50;1.48;;;;;;;9.91;100.00;99937.41;5000349;28;20095;-75
2023/12/24 09:27:29;;;;;;;6.00;1.20;;;;;;;9.91;100.00;99953.28;5002568;28;20105;-74
2023/12/24 09:30:15;;;;;;;6.13;1.80;;;;;;;9.93;100.00;99935.56;5002622;28;20068;-74
2023/12/24 09:33:00;;;;;;;10.30;1.92;;;;;;;9.94;100.00;99931.09;5002167;28;20060;-74
2023/12/24 09:35:46;;;;;;;8.30;1.60;;;;;;;9.94;100.00;99921.38;5000149;28;20041;-73
2023/12/24 09:38:31;;;;;;;11.25;1.52;;;;;;;9.94;100.00;99920.53;5000800;28;20119;-74
2023/12/24 09:41:17;;;;;;;8.82;1.83;;;;;;;9.94;100.00;99931.09;5000108;28;20165;-73
2023/12/24 09:44:03;;;;;;;4.65;1.40;;;;;;;9.94;100.00;99928.47;4998646;28;20141;-74
2023/12/24 09:46:49;;;;;;;4.43;1.33;;;;;;;9.95;100.00;99932.81;4985523;28;20050;-73
2023/12/24 09:49:35;;;;;;;6.38;1.42;;;;;;;9.97;100.00;99915.06;4999612;28;20042;-75
2023/12/24 09:52:21;;;;;;;8.35;1.50;;;;;;;9.98;100.00;99933.47;4999439;28;20037;-74
2023/12/24 09:55:09;;;;;;;5.38;1.33;;;;;;;10.02;100.00;99944.75;5013499;28;20057;-75
2023/12/24 09:57:55;;;;;;;5.07;1.50;;;;;;;10.04;100.00;99940.22;5005782;28;20790;-72
2023/12/24 10:00:40;;;;;;;7.78;1.58;;;;;;;10.07;100.00;99947.13;5002077;28;20088;-73
2023/12/24 10:03:28;;;;;;;9.73;1.48;;;;;;;10.09;100.00;99956.69;5009046;28;20053;-75
2023/12/24 10:06:17;;;;;;;4.28;1.50;;;;;;;10.12;100.00;99937.97;5009614;28;20046;-75
2023/12/24 10:09:05;;;;;;;7.80;1.40;;;;;;;10.14;100.00;99956.41;5005368;28;20113;-74
2023/12/24 10:12:09;;;;;;;5.55;1.52;;;;;;;10.16;100.00;99943.94;5007865;28;20038;-75
2023/12/24 10:14:57;;;;;;;3.78;1.20;;;;;;;10.16;100.00;99939.53;5002633;28;20052;-74
2023/12/24 10:17:43;;;;;;;5.95;1.58;;;;;;;10.17;100.00;99938.56;5004528;28;20034;-75
2023/12/24 10:20:28;;;;;;;10.05;1.40;;;;;;;10.18;100.00;99934.13;5004576;28;20054;-73
2023/12/24 10:23:14;;;;;;;8.65;1.58;;;;;;;10.20;100.00;99934.91;5001949;28;20061;-74
2023/12/24 10:26:07;;;;;;;6.65;1.33;;;;;;;10.21;100.00;99939.25;5001581;28;20073;-74
2023/12/24 10:28:53;;;;;;;9.02;1.65;;;;;;;10.22;100.00;99943.59;5011287;28;20034;-74
2023/12/24 10:31:49;;;;;;;7.60;1.65;;;;;;;10.24;100.00;99935.56;5002799;28;20041;-73
2023/12/24 10:34:35;;;;;;;7.95;1.20;;;;;;;10.24;100.00;99919.69;5000968;28;20060;-75
2023/12/24 10:37:26;;;;;;;7.75;1.65;;;;;;;10.25;100.00;99919.59;5002072;28;20053;-73
2023/12/24 10:40:14;;;;;;;6.00;1.17;;;;;;;10.25;100.00;99913.47;5005685;28;20128;-74
2023/12/24 10:43:00;;;;;;;4.85;1.10;;;;;;;10.23;100.00;99896.84;5003045;28;20528;-75
2023/12/24 10:45:45;;;;;;;6.88;1.30;;;;;;;10.23;100.00;99907.41;4999376;28;20102;-75
2023/12/24 10:48:31;;;;;;;7.43;1.50;;;;;;;10.21;100.00;99902.22;5005585;28;20069;-74
2023/12/24 10:51:19;;;;;;;4.85;1.60;;;;;;;10.17;100.00;99901.53;5004697;28;20643;-74
2023/12/24 10:54:08;;;;;;;5.78;2.17;;;;;;;10.16;100.00;99889.25;5015860;28;20073;-75
2023/12/24 10:57:03;;;;;;;8.77;1.73;;;;;;;10.14;100.00;99906.16;5003420;28;20586;-75
2023/12/24 11:00:09;;;;;;;6.50;1.58;;;;;;;10.12;100.00;99903.59;5001062;28;20042;-75
2023/12/24 11:02:59;;;;;;;7.22;2.60;;;;;;;10.10;100.00;99886.97;5003266;28;20058;-75
2023/12/24 11:05:46;;;;;;;10.13;2.25;;;;;;;10.12;100.00;99866.56;4998438;28;20049;-75
2023/12/24 11:08:35;;;;;;;9.50;1.85;;;;;;;10.15;100.00;99870.84;5001897;28;20068;-75
2023/12/24 11:11:23;;;;;;;8.65;1.65;;;;;;;10.16;100.00;99880.47;4998971;28;20269;-75
2023/12/24 11:14:08;;;;;;;6.97;1.40;;;;;;;10.18;100.00;99868.84;5001949;28;20053;-74
2023/12/24 11:16:54;;;;;;;7.82;1.98;;;;;;;10.19;100.00;99852.03;5001797;28;20420;-73
2023/12/24 11:19:41;;;;;;;5.35;1.23;;;;;;;10.22;100.00;99836.91;5003779;28;20770;-74
2023/12/24 11:22:27;;;;;;;8.73;1.77;;;;;;;10.22;100.00;99842.22;4999776;28;20134;-74
2023/12/24 11:25:16;;;;;;;9.70;1.88;;;;;;;10.24;100.00;99845.63;4972053;28;20049;-74
2023/12/24 11:28:04;;;;;;;5.88;1.77;;;;;;;10.26;100.00;99854.31;4995402;28;20049;-74
2023/12/24 11:30:49;;;;;;;6.72;1.27;;;;;;;10.27;100.00;99850.72;4998404;28;20053;-75
2023/12/24 11:33:35;;;;;;;11.70;2.17;;;;;;;10.31;100.00;99839.03;5001091;28;20041;-74
2023/12/24 11:36:22;;;;;;;5.43;1.52;;;;;;;10.32;100.00;99838.09;4997345;28;20117;-77
2023/12/24 11:39:07;;;;;;;6.43;1.85;;;;;;;10.29;100.00;99848.81;4998406;28;20033;-74
2023/12/24 11:41:58;;;;;;;5.88;1.58;;;;;;;10.29;100.00;99838.25;4999576;28;20936;-75
2023/12/24 11:44:46;;;;;;;5.88;1.50;;;;;;;10.30;100.00;99845.28;4986761;28;20038;-76
2023/12/24 11:47:32;;;;;;;8.13;1.83;;;;;;;10.32;100.00;99814.28;5014908;28;20056;-74
2023/12/24 11:50:18;;;;;;;4.47;1.50;;;;;;;10.35;100.00;99835.22;4983844;28;20041;-75
2023/12/24 11:53:04;;;;;;;8.93;1.75;;;;;;;10.34;100.00;99828.25;4997612;28;20041;-75
2023/12/24 11:56:06;;;;;;;9.98;1.73;;;;;;;10.36;100.00;99809.63;4998297;28;20105;-75
2023/12/24 11:59:06;;;;;;;4.65;1.33;;;;;;;10.35;100.00;99824.66;5007507;28;20046;-74
2023/12/24 12:02:04;;;;;;;6.85;1.63;;;;;;;10.36;100.00;99829.03;5000653;28;20042;-75
2023/12/24 12:04:50;;;;;;;7.40;1.40;;;;;;;10.39;100.00;99826.19;4995719;28;20038;-74
2023/12/24 12:07:36;;;;;;;8.77;1.80;;;;;;;10.42;100.00;99803.97;4994929;28;20144;-74
2023/12/24 12:10:24;;;;;;;7.32;1.67;;;;;;;10.45;100.00;99809.09;4996174;28;20038;-74
2023/12/24 12:13:09;;;;;;;8.82;1.52;;;;;;;10.46;100.00;99795.78;4997145;28;20081;-74
2023/12/24 12:15:54;;;;;;;8.90;2.03;;;;;;;10.49;100.00;99807.97;4995613;28;20124;-74
2023/12/24 12:18:40;;;;;;;8.15;1.50;;;;;;;10.50;100.00;99811.47;4994062;28;20113;-74
2023/12/24 12:21:25;;;;;;;6.22;1.48;;;;;;;10.50;100.00;99796.44;5008422;28;20038;-74
2023/12/24 12:24:13;;;;;;;6.30;1.60;;;;;;;10.52;100.00;99799.00;4997412;28;20115;-74
2023/12/24 12:27:02;;;;;;;8.48;1.85;;;;;;;10.53;100.00;99800.69;5006476;28;20509;-74
2023/12/24 12:29:47;;;;;;;9.95;1.58;;;;;;;10.53;100.00;99790.09;5001294;28;20045;-79
2023/12/24 12:32:35;;;;;;;4.30;1.70;;;;;;;10.55;100.00;99793.50;4999545;28;20057;-73
2023/12/24 12:35:23;;;;;;;7.53;1.98;;;;;;;10.59;100.00;99789.72;5001039;28;20064;-74
2023/12/24 12:38:09;;;;;;;6.68;2.30;;;;;;;10.59;100.00;99792.38;4999376;28;20240;-74
2023/12/24 12:40:54;;;;;;;4.65;2.45;;;;;;;10.61;100.00;99785.19;4994732;28;20169;-73
2023/12/24 12:43:40;;;;;;;8.23;2.35;;;;;;;10.61;100.00;99781.69;4995168;28;20092;-73
2023/12/24 12:46:28;;;;;;;7.05;2.05;;;;;;;10.62;100.00;99772.81;4995433;28;20041;-73
2023/12/24 12:49:14;;;;;;;10.40;2.05;;;;;;;10.64;100.00;99768.25;4997449;28;20052;-73
2023/12/24 12:51:59;;;;;;;7.80;2.30;;;;;;;10.63;100.00;99761.28;4998490;28;20042;-74
2023/12/24 12:54:45;;;;;;;6.65;2.08;;;;;;;10.63;100.00;99764.78;4994730;28;20054;-73